createdAt,value
2018-09-28T00:00:13.402Z,31.10
2018-09-28T00:02:49.069Z,31.10
2018-09-28T00:05:24.416Z,31.10
2018-09-28T00:07:59.823Z,31.08
2018-09-28T00:10:36.259Z,31.08
2018-09-28T00:13:11.854Z,31.06
2018-09-28T00:15:48.426Z,31.05
2018-09-28T00:18:25.248Z,31.05
2018-09-28T00:21:01.755Z,31.05
2018-09-28T00:23:40.840Z,31.03
2018-09-28T00:26:18.210Z,31.04
2018-09-28T00:28:57.700Z,31.03
2018-09-28T00:31:35.325Z,31.02
2018-09-28T00:34:19.102Z,31.03
2018-09-28T00:45:03.041Z,31.03
2018-09-28T00:53:37.728Z,31.03
2018-09-28T00:56:18.603Z,30.97
2018-09-28T00:58:59.982Z,30.94
2018-09-28T01:01:38.381Z,30.97
2018-09-28T01:04:15.728Z,30.92
2018-09-28T01:07:01.441Z,31.01
2018-09-28T01:09:38.201Z,31.02
2018-09-28T01:14:58.221Z,31.03
2018-09-28T01:20:19.970Z,31.10
2018-09-28T01:23:02.824Z,31.11
2018-09-28T01:25:45.818Z,30.94
2018-09-28T01:39:08.208Z,31.22
2018-09-28T01:41:47.587Z,31.27
2018-09-28T01:44:31.448Z,31.26
2018-09-28T01:47:08.302Z,31.32
2018-09-28T01:49:47.850Z,31.33
2018-09-28T01:52:25.830Z,31.32
2018-09-28T01:57:59.946Z,31.35
2018-09-28T02:00:37.573Z,31.35
2018-09-28T02:03:17.266Z,31.36
2018-09-28T02:06:59.429Z,31.35
2018-09-28T02:09:36.474Z,31.39
2018-09-28T02:12:15.914Z,31.38
2018-09-28T02:14:51.457Z,31.37
2018-09-28T02:17:26.910Z,31.35
2018-09-28T02:20:04.017Z,31.33
2018-09-28T02:22:42.314Z,31.31
2018-09-28T02:25:21.136Z,31.30
2018-09-28T02:27:57.306Z,31.28
2018-09-28T02:30:32.868Z,31.28
2018-09-28T02:33:10.645Z,31.26
2018-09-28T02:35:46.776Z,31.26
2018-09-28T02:41:11.565Z,31.19
2018-09-28T02:43:48.137Z,31.20
2018-09-28T02:46:26.013Z,31.17
2018-09-28T02:49:01.534Z,31.18
2018-09-28T02:51:37.478Z,31.17
2018-09-28T02:54:13.174Z,31.12
2018-09-28T02:56:49.301Z,31.12
2018-09-28T02:59:24.718Z,31.09
2018-09-28T03:02:00.753Z,31.00
2018-09-28T03:04:36.344Z,31.04
2018-09-28T03:07:12.135Z,30.95
2018-09-28T03:09:47.544Z,30.93
2018-09-28T03:12:23.122Z,30.94
2018-09-28T03:14:58.910Z,30.94
2018-09-28T03:17:35.037Z,30.92
2018-09-28T03:20:11.138Z,30.90
2018-09-28T03:22:47.023Z,30.89
2018-09-28T03:25:24.325Z,30.89
2018-09-28T03:28:00.161Z,30.87
2018-09-28T03:30:36.326Z,30.82
2018-09-28T03:33:12.482Z,30.87
2018-09-28T03:35:48.345Z,30.86
2018-09-28T03:38:24.081Z,30.84
2018-09-28T03:41:00.140Z,30.82
2018-09-28T03:43:35.955Z,30.81
2018-09-28T03:46:11.914Z,30.77
2018-09-28T03:48:47.510Z,30.76
2018-09-28T03:51:23.771Z,30.76
2018-09-28T03:53:59.910Z,30.74
2018-09-28T03:56:35.548Z,30.73
2018-09-28T03:59:13.178Z,30.73
2018-09-28T04:01:49.854Z,30.72
2018-09-28T04:04:25.788Z,30.69
2018-09-28T04:07:01.472Z,30.66
2018-09-28T04:09:37.152Z,30.65
2018-09-28T04:12:12.921Z,30.64
2018-09-28T04:14:48.786Z,30.59
2018-09-28T04:17:23.920Z,30.60
2018-09-28T04:20:01.166Z,30.62
2018-09-28T04:22:37.372Z,30.62
2018-09-28T04:25:13.375Z,30.62
2018-09-28T04:27:49.347Z,30.62
2018-09-28T04:30:24.942Z,30.62
2018-09-28T04:33:00.550Z,30.60
2018-09-28T04:35:36.799Z,30.60
2018-09-28T04:38:12.179Z,30.62
2018-09-28T04:40:47.682Z,30.62
2018-09-28T04:43:23.380Z,30.63
2018-09-28T04:45:58.928Z,30.62
2018-09-28T04:48:35.197Z,30.61
2018-09-28T04:51:11.071Z,30.59
2018-09-28T04:53:47.036Z,30.57
2018-09-28T04:56:23.159Z,30.55
2018-09-28T04:58:59.062Z,30.54
2018-09-28T05:01:34.967Z,30.52
2018-09-28T05:04:10.954Z,30.50
2018-09-28T05:06:46.751Z,30.49
2018-09-28T05:09:22.151Z,30.47
2018-09-28T05:11:57.924Z,30.44
2018-09-28T05:14:34.518Z,30.43
2018-09-28T05:17:10.365Z,30.40
2018-09-28T05:19:46.382Z,30.39
2018-09-28T05:22:21.793Z,30.38
2018-09-28T05:26:33.180Z,30.35
2018-09-28T05:29:09.534Z,30.33
2018-09-28T05:31:46.154Z,30.32
2018-09-28T05:34:22.766Z,30.29
2018-09-28T05:36:58.607Z,30.29
2018-09-28T05:39:35.100Z,30.24
2018-09-28T05:42:11.630Z,30.25
2018-09-28T05:44:48.197Z,30.25
2018-09-28T05:47:24.389Z,30.22
2018-09-28T05:50:00.565Z,30.20
2018-09-28T05:52:37.033Z,30.20
2018-09-28T05:55:14.236Z,30.20
2018-09-28T05:57:52.326Z,30.18
2018-09-28T06:00:31.966Z,30.15
2018-09-28T06:03:12.172Z,30.14
2018-09-28T06:05:52.225Z,30.13
2018-09-28T06:08:28.242Z,30.11
2018-09-28T06:11:04.110Z,30.09
2018-09-28T06:13:41.000Z,30.08
2018-09-28T06:16:17.217Z,30.07
2018-09-28T06:18:53.481Z,30.02
2018-09-28T06:21:29.882Z,30.01
2018-09-28T06:24:06.380Z,30.00
2018-09-28T06:26:42.390Z,29.98
2018-09-28T06:29:18.442Z,29.96
2018-09-28T06:31:54.438Z,29.97
2018-09-28T06:34:30.390Z,29.96
2018-09-28T06:37:06.438Z,29.97
2018-09-28T06:39:42.628Z,29.96
2018-09-28T06:42:18.738Z,29.95
2018-09-28T06:44:55.004Z,29.94
2018-09-28T06:47:29.125Z,29.89
2018-09-28T06:50:05.423Z,29.88
2018-09-28T06:52:42.069Z,29.87
2018-09-28T06:55:18.581Z,29.88
2018-09-28T06:57:54.415Z,29.88
2018-09-28T07:00:30.583Z,29.88
2018-09-28T07:03:06.925Z,29.88
2018-09-28T07:05:43.246Z,29.89
2018-09-28T07:08:19.407Z,29.89
2018-09-28T07:10:55.610Z,29.89
2018-09-28T07:13:31.677Z,29.88
2018-09-28T07:16:07.426Z,29.90
2018-09-28T07:18:43.466Z,29.91
2018-09-28T07:21:19.406Z,29.91
2018-09-28T07:23:55.310Z,29.91
2018-09-28T07:26:31.917Z,29.92
2018-09-28T07:29:07.875Z,29.92
2018-09-28T07:31:43.895Z,29.92
2018-09-28T07:34:19.646Z,29.93
2018-09-28T07:36:55.970Z,29.93
2018-09-28T07:39:32.237Z,29.94
2018-09-28T07:42:08.228Z,29.93
2018-09-28T07:44:44.237Z,29.93
2018-09-28T07:47:20.243Z,29.94
2018-09-28T07:49:56.287Z,29.94
2018-09-28T07:52:32.247Z,29.94
2018-09-28T07:55:08.241Z,29.94
2018-09-28T07:57:44.257Z,29.93
2018-09-28T08:00:20.496Z,29.94
2018-09-28T08:02:56.426Z,29.93
2018-09-28T08:05:32.249Z,29.94
2018-09-28T08:08:08.444Z,29.93
2018-09-28T08:10:44.427Z,29.93
2018-09-28T08:13:20.286Z,29.93
2018-09-28T08:15:56.270Z,29.95
2018-09-28T08:18:32.598Z,29.93
2018-09-28T08:21:08.543Z,29.94
2018-09-28T08:23:45.206Z,29.94
2018-09-28T08:26:21.245Z,29.93
2018-09-28T08:28:56.953Z,29.94
2018-09-28T08:31:32.953Z,29.95
2018-09-28T08:34:08.962Z,29.94
2018-09-28T08:36:45.300Z,29.94
2018-09-28T08:39:21.453Z,29.94
2018-09-28T08:41:57.301Z,29.94
2018-09-28T08:44:33.175Z,29.94
2018-09-28T08:47:09.058Z,29.94
2018-09-28T08:49:45.213Z,29.92
2018-09-28T08:52:21.433Z,29.92
2018-09-28T08:54:57.225Z,29.92
2018-09-28T08:57:33.429Z,29.93
2018-09-28T09:00:09.599Z,29.92
2018-09-28T09:02:46.222Z,29.94
2018-09-28T09:05:22.198Z,29.94
2018-09-28T09:07:58.442Z,29.93
2018-09-28T09:10:34.270Z,29.93
2018-09-28T09:13:10.446Z,29.92
2018-09-28T09:15:46.440Z,29.93
2018-09-28T09:18:22.336Z,29.92
2018-09-28T09:20:58.458Z,29.93
2018-09-28T09:23:34.273Z,29.93
2018-09-28T09:26:10.187Z,29.92
2018-09-28T09:28:46.279Z,29.92
2018-09-28T09:31:22.182Z,29.92
2018-09-28T09:33:58.282Z,29.91
2018-09-28T09:36:34.663Z,29.91
2018-09-28T09:39:13.058Z,29.91
2018-09-28T09:41:49.280Z,29.90
2018-09-28T09:44:25.456Z,29.91
2018-09-28T09:47:01.458Z,29.91
2018-09-28T09:49:37.286Z,29.91
2018-09-28T09:52:13.614Z,29.90
2018-09-28T09:54:50.288Z,29.87
2018-09-28T09:57:26.202Z,29.87
2018-09-28T10:00:02.295Z,29.86
2018-09-28T10:03:42.788Z,29.86
2018-09-28T10:06:18.469Z,29.87
2018-09-28T10:08:54.642Z,29.84
2018-09-28T10:11:30.467Z,29.84
2018-09-28T10:14:06.466Z,29.84
2018-09-28T10:16:42.334Z,29.83
2018-09-28T10:19:18.523Z,29.83
2018-09-28T10:21:54.478Z,29.82
2018-09-28T10:24:30.499Z,29.82
2018-09-28T10:27:06.523Z,29.81
2018-09-28T10:29:42.638Z,29.82
2018-09-28T10:32:18.483Z,29.81
2018-09-28T10:35:57.054Z,29.82
2018-09-28T10:38:33.001Z,29.82
2018-09-28T10:41:09.194Z,29.81
2018-09-28T10:43:45.522Z,29.80
2018-09-28T10:46:21.645Z,29.80
2018-09-28T10:48:58.210Z,29.81
2018-09-28T10:51:34.519Z,29.80
2018-09-28T10:54:10.314Z,29.80
2018-09-28T10:56:46.281Z,29.79
2018-09-28T10:59:22.310Z,29.78
2018-09-28T11:01:58.302Z,29.76
2018-09-28T11:04:34.357Z,29.77
2018-09-28T11:07:10.220Z,29.76
2018-09-28T11:09:46.231Z,29.75
2018-09-28T11:12:22.218Z,29.74
2018-09-28T11:14:58.290Z,29.73
2018-09-28T11:17:34.285Z,29.73
2018-09-28T11:20:11.313Z,29.71
2018-09-28T11:22:47.308Z,29.71
2018-09-28T11:25:23.301Z,29.70
2018-09-28T11:27:59.309Z,29.69
2018-09-28T11:30:35.489Z,29.68
2018-09-28T11:33:11.685Z,29.66
2018-09-28T11:35:47.938Z,29.66
2018-09-28T11:38:23.989Z,29.64
2018-09-28T11:40:59.938Z,29.67
2018-09-28T11:43:36.138Z,29.68
2018-09-28T11:46:12.098Z,29.67
2018-09-28T11:48:48.080Z,29.66
2018-09-28T11:51:24.570Z,29.67
2018-09-28T11:56:56.986Z,29.65
2018-09-28T11:59:40.817Z,29.65
2018-09-28T12:02:16.994Z,29.64
2018-09-28T12:04:53.145Z,29.64
2018-09-28T12:07:29.148Z,29.63
2018-09-28T12:10:05.202Z,29.62
2018-09-28T12:12:42.019Z,29.62
2018-09-28T12:15:18.095Z,29.61
2018-09-28T12:17:54.090Z,29.60
2018-09-28T12:20:30.179Z,29.60
2018-09-28T12:23:06.221Z,29.60
2018-09-28T12:25:42.770Z,29.58
2018-09-28T12:28:19.009Z,29.58
2018-09-28T12:30:55.228Z,29.57
2018-09-28T12:33:31.596Z,29.56
2018-09-28T12:36:07.753Z,29.54
2018-09-28T12:38:43.986Z,29.54
2018-09-28T12:41:19.953Z,29.54
2018-09-28T12:43:56.315Z,29.52
2018-09-28T12:46:32.346Z,29.52
2018-09-28T12:49:08.325Z,29.51
2018-09-28T12:51:44.347Z,29.51
2018-09-28T12:54:20.265Z,29.52
2018-09-28T12:56:56.744Z,29.49
2018-09-28T12:59:32.529Z,29.48
2018-09-28T13:02:08.583Z,29.48
2018-09-28T13:04:44.528Z,29.46
2018-09-28T13:07:20.697Z,29.47
2018-09-28T13:09:57.585Z,29.46
2018-09-28T13:12:33.600Z,29.45
2018-09-28T13:15:10.060Z,29.46
2018-09-28T13:17:46.531Z,29.46
2018-09-28T13:20:22.435Z,29.45
2018-09-28T13:22:58.553Z,29.44
2018-09-28T13:25:34.393Z,29.45
2018-09-28T13:28:10.265Z,29.43
2018-09-28T13:30:46.412Z,29.43
2018-09-28T13:33:22.377Z,29.42
2018-09-28T13:35:58.952Z,29.42
2018-09-28T13:38:35.226Z,29.43
2018-09-28T13:41:11.553Z,29.43
2018-09-28T13:43:47.399Z,29.41
2018-09-28T13:46:23.242Z,29.41
2018-09-28T13:48:59.205Z,29.40
2018-09-28T13:51:35.358Z,29.39
2018-09-28T13:54:12.031Z,29.39
2018-09-28T13:56:48.675Z,29.40
2018-09-28T13:59:25.004Z,29.35
2018-09-28T14:02:01.258Z,29.39
2018-09-28T14:04:37.429Z,29.38
2018-09-28T14:07:13.661Z,29.40
2018-09-28T14:09:50.002Z,29.40
2018-09-28T14:12:26.410Z,29.40
2018-09-28T14:15:02.656Z,29.41
2018-09-28T14:17:38.721Z,29.39
2018-09-28T14:20:15.045Z,29.40
2018-09-28T14:22:51.171Z,29.42
2018-09-28T14:25:27.308Z,29.40
2018-09-28T14:28:03.287Z,29.42
2018-09-28T14:30:39.181Z,29.43
2018-09-28T14:33:15.059Z,29.40
2018-09-28T14:35:50.860Z,29.39
2018-09-28T14:38:27.357Z,29.36
2018-09-28T14:41:03.784Z,29.39
2018-09-28T14:43:39.549Z,29.40
2018-09-28T14:46:15.566Z,29.42
2018-09-28T14:48:51.885Z,29.42
2018-09-28T14:51:28.370Z,29.42
2018-09-28T14:54:04.453Z,29.41
2018-09-28T14:56:40.376Z,29.40
2018-09-28T14:59:16.316Z,29.37
2018-09-28T15:01:52.615Z,29.37
2018-09-28T15:04:28.640Z,29.36
2018-09-28T15:07:05.377Z,29.37
2018-09-28T15:09:41.405Z,29.39
2018-09-28T15:12:17.670Z,29.42
2018-09-28T15:14:53.745Z,29.43
2018-09-28T15:17:29.642Z,29.45
2018-09-28T15:20:05.397Z,29.45
2018-09-28T15:22:41.400Z,29.46
2018-09-28T15:25:17.401Z,29.48
2018-09-28T15:27:53.740Z,29.48
2018-09-28T15:30:29.761Z,29.49
2018-09-28T15:33:05.760Z,29.49
2018-09-28T15:35:42.208Z,29.48
2018-09-28T15:38:18.177Z,29.49
2018-09-28T15:40:54.182Z,29.48
2018-09-28T15:43:30.582Z,29.48
2018-09-28T15:46:06.599Z,29.49
2018-09-28T15:48:43.221Z,29.50
2018-09-28T15:51:19.238Z,29.49
2018-09-28T15:53:55.415Z,29.48
2018-09-28T15:56:31.503Z,29.47
2018-09-28T15:59:07.611Z,29.42
2018-09-28T16:01:43.219Z,29.43
2018-09-28T16:04:18.805Z,29.43
2018-09-28T16:06:54.420Z,29.44
2018-09-28T16:09:30.126Z,29.43
2018-09-28T16:12:05.435Z,29.36
2018-09-28T16:14:41.175Z,29.41
2018-09-28T16:19:42.597Z,29.32
2018-09-28T16:23:24.594Z,29.26
2018-09-28T16:26:00.080Z,29.27
2018-09-28T16:28:35.420Z,29.20
2018-09-28T16:31:11.247Z,29.25
2018-09-28T16:33:47.545Z,29.25
2018-09-28T16:36:23.435Z,29.26
2018-09-28T16:38:59.435Z,29.27
2018-09-28T16:41:35.458Z,29.25
2018-09-28T16:44:11.177Z,29.22
2018-09-28T16:46:47.101Z,29.20
2018-09-28T16:49:22.810Z,29.21
2018-09-28T16:51:58.459Z,29.19
2018-09-28T16:54:37.105Z,29.19
2018-09-28T16:57:13.251Z,29.20
2018-09-28T16:59:49.418Z,29.17
2018-09-28T17:03:22.453Z,29.15
2018-09-28T17:05:57.826Z,29.14
2018-09-28T17:08:33.418Z,29.13
2018-09-28T17:11:09.169Z,29.14
2018-09-28T17:13:44.726Z,29.14
2018-09-28T17:16:20.459Z,29.14
2018-09-28T17:18:56.132Z,29.14
2018-09-28T17:21:31.771Z,29.14
2018-09-28T17:24:08.230Z,29.14
2018-09-28T17:26:43.769Z,29.10
2018-09-28T17:29:19.446Z,29.07
2018-09-28T17:31:55.091Z,29.06
2018-09-28T17:34:30.622Z,29.06
2018-09-28T17:37:06.178Z,29.06
2018-09-28T17:39:41.793Z,29.06
2018-09-28T17:42:17.454Z,29.04
2018-09-28T17:44:53.064Z,29.05
2018-09-28T17:47:28.632Z,29.05
2018-09-28T17:50:04.357Z,29.02
2018-09-28T17:52:39.818Z,29.01
2018-09-28T17:55:15.457Z,29.00
2018-09-28T17:57:51.104Z,29.00
2018-09-28T18:00:26.634Z,29.00
2018-09-28T18:05:54.833Z,28.94
2018-09-28T18:08:30.629Z,28.97
2018-09-28T18:11:05.797Z,28.96
2018-09-28T18:13:41.450Z,28.94
2018-09-28T18:16:17.043Z,28.94
2018-09-28T18:18:52.656Z,28.95
2018-09-28T18:21:28.338Z,28.96
2018-09-28T18:24:04.189Z,28.97
2018-09-28T18:27:47.286Z,28.95
2018-09-28T18:30:22.638Z,28.96
2018-09-28T18:32:57.863Z,28.97
2018-09-28T18:35:33.416Z,28.96
2018-09-28T18:38:09.160Z,28.94
2018-09-28T18:40:44.693Z,28.95
2018-09-28T18:43:20.380Z,28.95
2018-09-28T18:45:55.696Z,28.96
2018-09-28T18:48:31.317Z,28.99
2018-09-28T18:51:06.872Z,28.98
2018-09-28T18:53:42.276Z,28.98
2018-09-28T18:56:17.886Z,28.95
2018-09-28T18:58:53.442Z,28.91
2018-09-28T19:01:29.196Z,28.93
2018-09-28T19:04:04.701Z,28.92
2018-09-28T19:06:40.353Z,28.95
2018-09-28T19:09:15.830Z,28.95
2018-09-28T19:11:51.642Z,28.96
2018-09-28T19:14:27.316Z,28.99
2018-09-28T19:17:03.147Z,28.99
2018-09-28T19:19:39.449Z,28.97
2018-09-28T19:22:15.189Z,28.97
2018-09-28T19:24:50.831Z,28.96
2018-09-28T19:27:26.482Z,28.98
2018-09-28T19:30:02.194Z,29.01
2018-09-28T19:34:05.895Z,29.03
2018-09-28T19:36:41.490Z,28.98
2018-09-28T19:39:17.285Z,29.05
2018-09-28T19:44:37.694Z,28.98
2018-09-28T19:47:13.666Z,29.05
2018-09-28T19:49:49.861Z,29.10
2018-09-28T19:52:25.669Z,29.15
2018-09-28T19:55:01.497Z,29.17
2018-09-28T19:57:37.681Z,29.19
2018-09-28T20:00:14.134Z,29.22
2018-09-28T20:02:50.119Z,29.18
2018-09-28T20:05:26.383Z,29.25
2018-09-28T20:08:02.490Z,29.26
2018-09-28T20:10:38.972Z,29.29
2018-09-28T20:13:15.253Z,29.31
2018-09-28T20:15:51.269Z,29.32
2018-09-28T20:18:27.352Z,29.34
2018-09-28T20:21:03.485Z,29.36
2018-09-28T20:23:39.484Z,29.38
2018-09-28T20:26:15.680Z,29.38
2018-09-28T20:28:51.349Z,29.40
2018-09-28T20:31:27.460Z,29.43
2018-09-28T20:34:03.454Z,29.44
2018-09-28T20:36:39.437Z,29.45
2018-09-28T20:39:16.418Z,29.46
2018-09-28T20:41:52.488Z,29.47
2018-09-28T20:44:28.504Z,29.48
2018-09-28T20:47:04.510Z,29.50
2018-09-28T20:49:40.435Z,29.52
2018-09-28T20:52:16.398Z,29.52
2018-09-28T20:54:52.825Z,29.53
2018-09-28T20:57:28.861Z,29.56
2018-09-28T21:00:04.866Z,29.55
2018-09-28T21:02:41.492Z,29.56
2018-09-28T21:05:17.310Z,29.58
2018-09-28T21:07:53.487Z,29.59
2018-09-28T21:10:29.338Z,29.60
2018-09-28T21:13:05.345Z,29.60
2018-09-28T21:15:41.506Z,29.60
2018-09-28T21:20:01.642Z,29.62
2018-09-28T21:22:37.704Z,29.63
2018-09-28T21:25:13.534Z,29.62
2018-09-28T21:27:49.878Z,29.64
2018-09-28T21:30:25.546Z,29.63
2018-09-28T21:33:01.695Z,29.64
2018-09-28T21:35:37.706Z,29.64
2018-09-28T21:38:14.151Z,29.64
2018-09-28T21:40:50.526Z,29.64
2018-09-28T21:43:26.361Z,29.65
2018-09-28T21:46:02.320Z,29.67
2018-09-28T21:48:38.154Z,29.66
2018-09-28T21:51:14.521Z,29.67
2018-09-28T21:53:50.567Z,29.68
2018-09-28T21:56:26.555Z,29.69
2018-09-28T21:59:02.341Z,29.70
2018-09-28T22:01:38.546Z,29.70
2018-09-28T22:04:14.875Z,29.71
2018-09-28T22:06:51.230Z,29.71
2018-09-28T22:09:27.181Z,29.73
2018-09-28T22:12:03.337Z,29.74
2018-09-28T22:14:39.425Z,29.74
2018-09-28T22:17:15.385Z,29.75
2018-09-28T22:19:52.446Z,29.75
2018-09-28T22:22:28.881Z,29.75
2018-09-28T22:25:05.120Z,29.76
2018-09-28T22:27:41.378Z,29.76
2018-09-28T22:30:17.505Z,29.78
2018-09-28T22:32:53.557Z,29.79
2018-09-28T22:35:29.895Z,29.79
2018-09-28T22:38:05.926Z,29.77
2018-09-28T22:40:41.547Z,29.80
2018-09-28T22:43:18.165Z,29.81
2018-09-28T22:45:55.673Z,29.82
2018-09-28T22:48:31.779Z,29.83
2018-09-28T22:51:08.211Z,29.84
2018-09-28T22:53:44.242Z,29.83
2018-09-28T22:56:20.468Z,29.85
2018-09-28T22:58:56.732Z,29.85
2018-09-28T23:01:32.992Z,29.86
2018-09-28T23:04:09.414Z,29.87
2018-09-28T23:06:45.917Z,29.87
2018-09-28T23:09:21.897Z,29.87
2018-09-28T23:11:57.958Z,29.88
2018-09-28T23:14:33.942Z,29.90
2018-09-28T23:17:10.469Z,29.91
2018-09-28T23:19:46.561Z,29.91
2018-09-28T23:22:22.553Z,29.93
2018-09-28T23:24:58.554Z,29.93
2018-09-28T23:27:34.752Z,29.93
2018-09-28T23:30:10.898Z,29.95
2018-09-28T23:32:47.346Z,29.96
2018-09-28T23:35:23.381Z,29.97
2018-09-28T23:37:59.240Z,30.00
2018-09-28T23:40:35.384Z,30.02
2018-09-28T23:43:11.475Z,30.05
2018-09-28T23:45:48.554Z,30.06
2018-09-28T23:48:24.739Z,30.09
2018-09-28T23:51:01.005Z,30.11
2018-09-28T23:53:37.342Z,30.11
2018-09-28T23:56:13.375Z,30.11
2018-09-28T23:58:49.578Z,30.14
